Time;durP1;ratioP1;P1;durP2;ratioP2;P2;SDS_P1;SDS_P2;PMS_P1;PMS_P2;Temp;Humidity;BMP_temperature;BMP_pressure;BME280_temperature;BME280_humidity;BME280_pressure;Samples;Min_cycle;Max_cycle;Signal;HPM_P1;HPM_P2
2021/10/19 00:00:17;;;;;;;1.73;1.60;;;20.50;46.60;;;24.25;31.14;101695.69;5093501;28;20048;-9
2021/10/19 00:02:43;;;;;;;2.22;1.50;;;20.40;46.60;;;24.22;31.05;101694.06;5093778;28;20050;-9
2021/10/19 00:05:10;;;;;;;2.03;1.60;;;20.40;46.50;;;24.22;31.07;101684.25;5093525;28;20063;-9
2021/10/19 00:07:36;;;;;;;2.20;1.58;;;20.40;46.60;;;24.22;31.33;101680.72;5075962;28;20532;-9
2021/10/19 00:10:04;;;;;;;1.60;1.50;;;20.40;46.60;;;24.22;31.07;101675.38;5093527;28;20557;-9
2021/10/19 00:12:31;;;;;;;1.90;1.70;;;20.40;46.60;;;24.23;31.25;101674.41;5075259;28;20044;-9
2021/10/19 00:14:57;;;;;;;1.95;1.65;;;20.40;46.60;;;24.23;30.99;101679.75;5093397;28;20074;-9
2021/10/19 00:17:23;;;;;;;1.88;1.60;;;20.40;46.60;;;24.20;31.32;101686.16;5089338;28;20044;-9
2021/10/19 00:19:49;;;;;;;2.75;1.80;;;20.40;46.60;;;24.20;31.18;101679.94;5093336;28;20044;-9
2021/10/19 00:22:15;;;;;;;1.67;1.58;;;20.40;46.60;;;24.19;31.30;101680.91;5093644;28;20542;-9
2021/10/19 00:24:41;;;;;;;2.00;1.65;;;20.40;46.60;;;24.22;31.14;101683.38;5093335;28;20051;-9
2021/10/19 00:27:07;;;;;;;1.63;1.52;;;20.40;46.60;;;24.19;31.33;101689.78;5093275;28;20054;-9
2021/10/19 00:29:33;;;;;;;1.88;1.55;;;20.40;46.60;;;24.20;31.29;101698.66;5093039;28;20043;-9
2021/10/19 00:31:59;;;;;;;1.60;1.50;;;20.40;46.60;;;24.21;31.11;101689.69;5093200;28;20052;-9
2021/10/19 00:34:25;;;;;;;1.75;1.65;;;20.40;46.60;;;24.22;31.29;101699.41;5093009;28;20044;-9
2021/10/19 00:36:50;;;;;;;1.73;1.60;;;20.40;46.60;;;24.20;31.26;101690.63;5093073;28;20075;-9
2021/10/19 00:39:16;;;;;;;1.70;1.60;;;20.40;46.60;;;24.21;31.24;101689.69;5092999;28;20048;-9
2021/10/19 00:41:43;;;;;;;2.00;1.63;;;20.40;46.60;;;24.19;31.22;101678.22;5093283;28;20131;-9
2021/10/19 00:44:09;;;;;;;1.73;1.38;;;20.40;46.60;;;24.20;31.28;101675.47;5074859;28;20119;-9
2021/10/19 00:46:35;;;;;;;2.05;1.65;;;20.40;46.60;;;24.19;31.19;101676.44;5093274;28;20052;-9
2021/10/19 00:49:03;;;;;;;1.85;1.60;;;20.40;46.70;;;24.19;31.22;101671.09;5093219;28;20044;-9
2021/10/19 00:51:28;;;;;;;2.28;1.92;;;20.40;46.60;;;24.20;31.34;101671.94;5073171;28;20093;-9
2021/10/19 00:53:54;;;;;;;2.45;1.65;;;20.40;46.70;;;24.20;31.13;101671.94;5074796;28;20044;-9
2021/10/19 00:56:20;;;;;;;1.85;1.58;;;20.40;47.20;;;24.20;31.14;101664.75;5093288;28;20491;-9
2021/10/19 00:58:46;;;;;;;2.10;1.90;;;20.40;46.70;;;24.16;31.19;101651.72;5073680;28;20045;-9
2021/10/19 01:01:14;;;;;;;1.95;1.77;;;20.40;46.70;;;24.19;31.33;101655.06;5092824;28;20048;-9
2021/10/19 01:03:40;;;;;;;1.60;1.50;;;20.40;46.70;;;24.18;31.36;101647.13;5092502;28;20047;-9
2021/10/19 01:06:08;;;;;;;2.63;1.80;;;20.40;46.70;;;24.19;31.30;101649.72;5092621;28;20052;-9
2021/10/19 01:08:37;;;;;;;2.13;1.73;;;20.40;46.70;;;24.18;31.09;101645.31;5091973;28;20040;-9
2021/10/19 01:11:05;;;;;;;1.48;1.35;;;20.40;46.70;;;24.16;31.06;101639.22;5092594;28;20091;-9
2021/10/19 01:13:33;;;;;;;1.77;1.52;;;20.40;46.80;;;24.18;31.16;101642.63;5092632;28;20051;-9
2021/10/19 01:16:07;;;;;;;1.60;1.50;;;20.40;46.70;;;24.18;31.45;101642.63;5088269;28;20055;-9
2021/10/19 01:18:34;;;;;;;2.17;1.98;;;20.40;46.70;;;24.19;30.97;101648.81;5092555;28;20055;-9
2021/10/19 01:21:01;;;;;;;2.03;1.77;;;20.40;46.70;;;24.18;31.21;101647.97;5092606;28;20055;-9
2021/10/19 01:23:27;;;;;;;1.80;1.60;;;20.40;46.70;;;24.14;31.22;101651.81;5092770;28;20040;-9
2021/10/19 01:25:53;;;;;;;1.95;1.52;;;20.40;46.70;;;24.16;31.17;101652.56;5092422;28;20075;-10
2021/10/19 01:28:20;;;;;;;2.67;1.90;;;20.40;46.70;;;24.18;30.99;101663.16;5092860;28;20476;-9
2021/10/19 01:30:50;;;;;;;1.50;1.40;;;20.40;46.80;;;24.19;31.12;101656.84;5072298;28;20135;-9
2021/10/19 01:33:17;;;;;;;2.05;1.80;;;20.40;46.70;;;24.17;31.27;101653.41;5092645;28;20050;-9
2021/10/19 01:35:46;;;;;;;1.98;1.63;;;20.40;46.70;;;24.18;31.25;101649.81;5092639;28;20379;-9
2021/10/19 01:38:22;;;;;;;2.22;1.83;;;20.40;46.70;;;24.15;31.22;101645.50;5092261;28;20060;-9
2021/10/19 01:40:51;;;;;;;1.70;1.60;;;20.40;46.70;;;24.17;31.20;101648.97;5092366;28;20043;-9
2021/10/19 01:43:22;;;;;;;2.25;2.05;;;20.40;46.70;;;24.19;31.28;101660.41;5092543;28;20374;-9
2021/10/19 01:45:52;;;;;;;1.20;1.10;;;20.40;46.70;;;24.20;31.16;101647.88;5092168;28;20062;-9
2021/10/19 01:48:20;;;;;;;1.88;1.77;;;20.40;46.70;;;24.19;31.19;101648.81;5092044;28;20144;-9
2021/10/19 01:50:47;;;;;;;1.90;1.70;;;20.40;46.60;;;24.17;31.28;101648.97;5092067;28;20063;-9
2021/10/19 01:53:13;;;;;;;2.80;1.73;;;20.40;46.70;;;24.19;31.09;101646.16;5092440;28;20052;-9
2021/10/19 01:55:41;;;;;;;1.83;1.40;;;20.40;46.70;;;24.16;31.28;101641.03;5092099;28;20075;-9
2021/10/19 01:58:09;;;;;;;1.55;1.45;;;20.40;46.70;;;24.16;31.26;101638.38;5091534;28;20055;-9
2021/10/19 02:00:37;;;;;;;1.92;1.67;;;20.40;46.70;;;24.15;31.29;101634.81;5091687;28;20047;-9
2021/10/19 02:03:08;;;;;;;1.55;1.40;;;20.40;46.70;;;24.17;31.10;101632.94;5091945;28;20488;-9
2021/10/19 02:05:34;;;;;;;1.60;1.50;;;20.40;46.70;;;24.19;31.42;101638.13;5091715;28;20052;-9
2021/10/19 02:08:03;;;;;;;2.25;1.80;;;20.40;46.70;;;24.17;31.20;101627.56;5091485;28;20075;-9
2021/10/19 02:10:30;;;;;;;2.00;1.77;;;20.40;46.70;;;24.17;31.11;101616.88;5091675;28;20040;-9
2021/10/19 02:12:56;;;;;;;1.75;1.65;;;20.40;46.70;;;24.19;31.14;101608.75;5091813;28;20075;-9
2021/10/19 02:15:26;;;;;;;1.73;1.50;;;20.40;46.80;;;24.18;31.40;101607.06;5091473;28;20057;-9
2021/10/19 02:17:52;;;;;;;1.85;1.50;;;20.40;46.70;;;24.17;31.24;101603.53;5091507;28;20399;-9
2021/10/19 02:20:18;;;;;;;1.80;1.70;;;20.40;46.70;;;24.14;31.36;101600.16;5093522;28;20052;-9
2021/10/19 02:22:44;;;;;;;1.70;1.60;;;20.40;46.70;;;24.14;31.25;101595.72;5095092;28;20044;-9
2021/10/19 02:25:10;;;;;;;1.90;1.70;;;20.40;46.70;;;24.16;31.29;101591.13;5095368;28;20388;-9
2021/10/19 02:27:36;;;;;;;1.40;1.30;;;20.40;46.70;;;24.17;31.04;101584.81;5095478;28;20044;-9
2021/10/19 02:30:04;;;;;;;2.33;1.70;;;20.40;46.70;;;24.15;31.30;101572.50;5095129;28;20055;-9
2021/10/19 02:32:29;;;;;;;1.50;1.40;;;20.40;46.70;;;24.17;31.10;101568.78;5095007;28;20047;-9
2021/10/19 02:34:55;;;;;;;2.22;1.70;;;20.40;46.70;;;24.16;31.28;101560.88;5095032;28;20048;-9
2021/10/19 02:37:21;;;;;;;1.73;1.50;;;20.40;46.70;;;24.14;31.38;101547.63;5095269;28;20091;-9
2021/10/19 02:39:47;;;;;;;1.80;1.60;;;20.40;46.70;;;24.14;31.37;101538.72;5093618;28;20051;-9
2021/10/19 02:42:13;;;;;;;1.90;1.80;;;20.40;46.70;;;24.16;31.39;101548.38;5095445;28;20052;-9
2021/10/19 02:44:40;;;;;;;1.98;1.73;;;20.40;46.70;;;24.16;31.13;101545.69;5094896;28;20044;-9
2021/10/19 02:47:05;;;;;;;1.83;1.60;;;20.40;46.70;;;24.11;31.20;101531.78;5094855;28;20047;-9
2021/10/19 02:49:32;;;;;;;2.25;1.90;;;20.30;46.80;;;24.15;31.30;101538.63;5094646;28;20051;-9
2021/10/19 02:51:57;;;;;;;2.33;1.70;;;20.20;47.00;;;24.15;31.31;101535.94;5094836;28;20507;-9
2021/10/19 02:54:23;;;;;;;1.92;1.60;;;20.20;47.20;;;24.15;31.47;101527.94;5094639;28;20080;-9
2021/10/19 02:56:49;;;;;;;3.25;1.85;;;20.10;47.30;;;24.11;31.27;101523.75;5094657;28;20043;-10
2021/10/19 02:59:15;;;;;;;2.03;1.83;;;20.10;47.30;;;24.13;31.38;101537.88;5094971;28;20040;-9
2021/10/19 03:01:41;;;;;;;1.52;1.38;;;20.10;47.30;;;24.14;31.27;101542.28;5095012;28;20052;-9
2021/10/19 03:04:06;;;;;;;1.65;1.55;;;20.10;47.30;;;24.17;31.18;101541.19;5094579;28;20044;-9
2021/10/19 03:06:32;;;;;;;2.47;1.83;;;20.20;47.10;;;24.16;31.42;101529.66;5095049;28;20100;-9
2021/10/19 03:08:58;;;;;;;2.00;1.85;;;20.30;47.00;;;24.20;31.35;101541.84;5094560;28;20101;-9
2021/10/19 03:11:24;;;;;;;2.03;1.83;;;20.30;47.00;;;24.20;31.22;101528.50;5094825;28;20044;-9
2021/10/19 03:13:50;;;;;;;2.13;1.92;;;20.20;47.00;;;24.20;31.43;101531.16;5094593;28;20052;-9
2021/10/19 03:16:18;;;;;;;2.30;1.67;;;20.30;47.10;;;24.26;31.40;101531.72;5094376;28;20051;-9
2021/10/19 03:18:44;;;;;;;1.73;1.63;;;20.30;46.90;;;24.26;31.18;101532.59;5094444;28;20139;-9
2021/10/19 03:21:10;;;;;;;2.55;2.00;;;20.40;46.80;;;24.27;31.24;101531.63;5094216;28;20066;-10
2021/10/19 03:23:36;;;;;;;1.80;1.70;;;20.50;46.80;;;24.30;31.21;101542.13;5094641;28;20044;-9
2021/10/19 03:26:03;;;;;;;1.80;1.63;;;20.50;46.60;;;24.32;31.18;101540.19;5094557;28;20541;-9
2021/10/19 03:28:30;;;;;;;1.70;1.60;;;20.50;46.60;;;24.34;31.14;101542.75;5093998;28;20173;-9
2021/10/19 03:30:56;;;;;;;2.33;1.92;;;20.50;46.60;;;24.38;31.26;101546.97;5093795;28;20396;-9
2021/10/19 03:33:21;;;;;;;1.55;1.45;;;20.50;46.60;;;24.41;31.26;101549.44;5094376;28;20055;-9
2021/10/19 03:35:49;;;;;;;2.00;1.75;;;20.60;46.60;;;24.46;31.31;101538.41;5094021;28;20135;-9
2021/10/19 03:38:17;;;;;;;2.03;1.70;;;20.60;46.40;;;24.45;31.15;101534.91;5093851;28;20056;-10
2021/10/19 03:40:43;;;;;;;2.80;1.92;;;20.60;46.40;;;24.48;31.06;101529.34;5094028;28;20044;-9
2021/10/19 03:43:09;;;;;;;2.33;1.80;;;20.70;46.40;;;24.52;31.11;101536.19;5093628;28;20052;-9
2021/10/19 03:45:35;;;;;;;2.00;1.75;;;20.70;46.30;;;24.53;31.10;101535.25;5093764;28;20052;-9
2021/10/19 03:48:00;;;;;;;2.33;1.63;;;20.70;46.30;;;24.55;30.93;101530.69;5093484;28;20052;-9
2021/10/19 03:50:26;;;;;;;1.98;1.55;;;20.70;46.30;;;24.59;31.16;101542.91;5093360;28;20044;-9
2021/10/19 03:52:57;;;;;;;2.00;1.80;;;20.80;46.20;;;24.62;31.15;101546.31;5093470;28;20066;-9
2021/10/19 03:55:24;;;;;;;1.67;1.57;;;20.80;46.20;;;24.65;30.87;101533.59;5093402;28;20056;-9
2021/10/19 03:57:50;;;;;;;2.53;2.33;;;20.80;46.10;;;24.66;30.97;101542.47;5093444;28;20735;-9
2021/10/19 04:00:16;;;;;;;2.28;2.08;;;20.80;46.10;;;24.68;31.07;101545.94;5093449;28;20047;-9
2021/10/19 04:02:42;;;;;;;2.42;2.00;;;20.80;46.10;;;24.67;30.81;101541.53;5093938;28;20433;-9
2021/10/19 04:05:08;;;;;;;2.95;2.10;;;20.80;46.20;;;24.69;30.91;101545.81;5093545;28;20040;-9
2021/10/19 04:07:35;;;;;;;2.83;2.08;;;20.80;46.10;;;24.70;30.79;101541.31;5075721;28;20400;-9
2021/10/19 04:10:05;;;;;;;2.30;2.10;;;20.80;46.10;;;24.71;30.79;101545.72;5093778;28;20125;-9
2021/10/19 04:12:31;;;;;;;3.55;1.80;;;20.80;46.10;;;24.71;30.89;101546.56;5093902;28;20047;-9
2021/10/19 04:14:57;;;;;;;2.33;2.08;;;20.80;46.70;;;24.74;30.89;101550.84;5093470;28;20395;-9
2021/10/19 04:17:22;;;;;;;1.92;1.83;;;20.80;46.10;;;24.71;30.90;101543.06;5094050;28;20161;-9
2021/10/19 04:19:48;;;;;;;1.98;1.77;;;20.80;46.20;;;24.72;30.75;101542.91;5093378;28;20392;-9
2021/10/19 04:22:14;;;;;;;2.20;2.00;;;20.80;46.20;;;24.71;30.78;101551.06;5093358;28;20044;-9
2021/10/19 04:24:40;;;;;;;12.90;2.72;;;20.80;46.10;;;24.73;30.99;101544.66;5093268;28;20079;-8
2021/10/19 04:27:06;;;;;;;8.23;2.63;;;20.80;46.70;;;24.72;30.83;101542.91;5093312;28;20545;-7
2021/10/19 04:29:32;;;;;;;6.55;2.47;;;20.90;46.40;;;24.72;31.01;101545.59;5093778;28;20040;-7
2021/10/19 04:31:57;;;;;;;6.03;2.45;;;20.90;46.10;;;24.72;30.91;101534.91;5093235;28;20131;-8
2021/10/19 04:34:23;;;;;;;6.63;3.35;;;20.90;46.20;;;24.72;30.95;101539.41;5093573;28;20040;-8
2021/10/19 04:36:49;;;;;;;3.92;1.95;;;20.80;46.30;;;24.72;30.92;101529.56;5093337;28;20047;-8
2021/10/19 04:39:15;;;;;;;8.57;2.45;;;20.80;46.50;;;24.70;30.83;101527.94;5093377;28;20860;-8
2021/10/19 04:41:44;;;;;;;4.18;2.45;;;20.70;46.50;;;24.69;30.72;101520.88;5092542;28;20048;-8
2021/10/19 04:44:13;;;;;;;7.43;2.42;;;20.80;46.40;;;24.69;30.91;101523.56;5092670;28;20051;-8
2021/10/19 04:46:43;;;;;;;6.00;2.60;;;20.80;46.30;;;24.68;30.93;101514.69;5092929;28;20048;-8
2021/10/19 04:49:09;;;;;;;7.55;2.42;;;20.80;46.40;;;24.66;30.85;101513.06;5093047;28;20141;-8
2021/10/19 04:51:35;;;;;;;7.50;2.20;;;20.80;46.20;;;24.65;30.87;101517.56;5092766;28;20480;-8
2021/10/19 04:54:00;;;;;;;5.38;2.45;;;20.80;46.20;;;24.65;30.73;101524.72;5092796;28;20043;-8
2021/10/19 04:56:26;;;;;;;6.38;2.33;;;20.80;46.20;;;24.65;30.93;101517.56;5093034;28;20052;-8
2021/10/19 04:58:52;;;;;;;5.70;2.08;;;20.80;46.20;;;24.65;30.90;101506.00;5092878;28;20048;-8
2021/10/19 05:01:18;;;;;;;4.25;2.45;;;20.80;46.20;;;24.63;30.97;101510.63;5092577;28;20113;-8
2021/10/19 05:03:46;;;;;;;6.25;2.92;;;20.80;46.30;;;24.62;30.91;101507.06;5092758;28;20063;-11
2021/10/19 05:06:14;;;;;;;4.25;2.22;;;20.80;46.20;;;24.62;30.96;101500.88;5092784;28;20101;-8
2021/10/19 05:08:40;;;;;;;6.10;2.58;;;20.70;46.30;;;24.60;30.90;101507.16;5074560;28;20557;-8
2021/10/19 05:11:05;;;;;;;3.22;2.33;;;20.80;46.40;;;24.63;30.91;101516.81;5093211;28;20052;-8
2021/10/19 05:13:31;;;;;;;4.13;2.17;;;20.70;46.50;;;24.62;30.90;101504.41;5092676;28;20404;-8
2021/10/19 05:15:59;;;;;;;5.25;2.85;;;20.70;46.40;;;24.57;30.87;101491.34;5092721;28;20468;-8
2021/10/19 05:18:26;;;;;;;4.22;2.28;;;20.70;46.50;;;24.60;31.13;101495.63;5092521;28;20496;-8
2021/10/19 05:20:53;;;;;;;4.70;2.22;;;20.70;46.40;;;24.57;30.86;101480.66;5092507;28;20407;-8
2021/10/19 05:23:20;;;;;;;3.28;2.67;;;20.70;46.60;;;24.59;30.95;101486.75;5092772;28;20044;-8
2021/10/19 05:25:47;;;;;;;3.45;2.40;;;20.60;46.60;;;24.58;30.92;101474.34;5092657;28;20044;-8
2021/10/19 05:28:12;;;;;;;3.55;2.38;;;20.70;46.50;;;24.57;30.88;101461.94;5092575;28;20048;-8
2021/10/19 05:30:38;;;;;;;4.07;2.50;;;20.70;46.40;;;24.58;31.01;101458.28;5092838;28;20051;-8
2021/10/19 05:33:05;;;;;;;5.70;3.00;;;20.70;46.40;;;24.56;31.00;101454.88;5092153;28;20044;-8
2021/10/19 05:35:32;;;;;;;8.40;2.60;;;20.70;46.30;;;24.59;31.08;101454.66;5092428;28;20397;-8
2021/10/19 05:37:58;;;;;;;4.70;2.92;;;20.80;46.30;;;24.56;30.96;101452.19;5073896;28;20060;-8
2021/10/19 05:40:24;;;;;;;4.60;2.63;;;20.80;46.20;;;24.58;30.91;101458.28;5090769;28;20068;-8
2021/10/19 05:42:50;;;;;;;4.32;3.13;;;20.80;46.20;;;24.59;31.02;101456.47;5092152;28;20408;-8
2021/10/19 05:45:17;;;;;;;3.60;2.50;;;20.80;46.10;;;24.58;30.78;101455.63;5092164;28;20052;-8
2021/10/19 05:47:45;;;;;;;3.67;2.80;;;20.80;46.10;;;24.56;30.79;101452.19;5092139;28;20476;-8
2021/10/19 05:50:14;;;;;;;3.75;2.53;;;20.80;46.20;;;24.56;30.93;101451.34;5092057;28;20118;-8
2021/10/19 05:52:41;;;;;;;4.70;2.90;;;20.80;46.30;;;24.58;30.87;101452.09;5092155;28;20052;-8
2021/10/19 05:55:08;;;;;;;2.90;2.38;;;20.70;46.30;;;24.57;30.84;101451.25;5095700;28;20131;-8
2021/10/19 05:57:34;;;;;;;2.88;2.38;;;20.70;46.30;;;24.55;31.06;101452.31;5075345;28;20052;-9
2021/10/19 06:00:00;;;;;;;3.10;2.22;;;20.80;46.30;;;24.58;31.17;101457.44;5095316;28;20055;-8
2021/10/19 06:02:26;;;;;;;5.65;2.50;;;20.80;46.20;;;24.57;31.04;101459.28;5095383;28;20044;-7
2021/10/19 06:04:51;;;;;;;3.90;2.38;;;20.80;46.20;;;24.60;30.88;101467.06;5095596;28;20135;-8
2021/10/19 06:07:17;;;;;;;4.65;2.70;;;20.80;46.10;;;24.58;31.02;101452.94;5095178;28;20047;-7
2021/10/19 06:09:43;;;;;;;2.83;2.58;;;20.80;46.10;;;24.58;30.94;101444.09;5095060;28;20048;-7
2021/10/19 06:12:09;;;;;;;4.43;2.60;;;20.80;46.10;;;24.58;30.98;101446.75;5095268;28;20290;-7
2021/10/19 06:14:34;;;;;;;4.45;2.80;;;20.80;46.10;;;24.59;30.90;101445.78;5094849;28;20056;-7
2021/10/19 06:17:00;;;;;;;2.90;2.60;;;20.80;46.10;;;24.58;30.94;101446.75;5094800;28;20082;-8
2021/10/19 06:19:26;;;;;;;3.28;2.78;;;20.80;46.10;;;24.58;31.00;101436.06;5095349;28;20051;-7
2021/10/19 06:21:52;;;;;;;3.75;2.60;;;20.80;46.00;;;24.61;30.79;101443.88;5095029;28;20036;-7
2021/10/19 06:24:18;;;;;;;4.28;3.05;;;20.80;46.10;;;24.60;30.93;101447.50;5094885;28;20047;-8
2021/10/19 06:26:44;;;;;;;3.55;2.78;;;20.80;46.20;;;24.60;30.98;101447.50;5094914;28;20052;-7
2021/10/19 06:29:12;;;;;;;3.10;2.80;;;20.70;46.40;;;24.57;30.86;101448.59;5094836;28;20431;-7
2021/10/19 06:31:38;;;;;;;3.45;2.80;;;20.60;46.60;;;24.59;30.91;101460.03;5094957;28;20081;-7
2021/10/19 06:34:04;;;;;;;4.57;2.70;;;20.60;46.70;;;24.58;31.01;101457.44;5095046;28;20086;-7
2021/10/19 06:36:31;;;;;;;4.60;2.55;;;20.60;46.90;;;24.59;31.12;101457.34;5094744;28;20051;-7
2021/10/19 06:38:57;;;;;;;3.70;2.67;;;20.60;46.80;;;24.59;30.91;101462.69;5094884;28;20048;-7
2021/10/19 06:41:23;;;;;;;3.03;2.70;;;20.60;46.80;;;24.61;30.91;101459.91;5094818;28;20101;-8
2021/10/19 06:43:49;;;;;;;3.28;2.70;;;20.50;46.80;;;24.59;30.83;101462.69;5094640;28;20051;-7
2021/10/19 06:46:15;;;;;;;4.65;2.55;;;20.60;46.80;;;24.61;30.92;101462.59;5093370;28;20480;-7
2021/10/19 06:48:41;;;;;;;2.85;2.25;;;20.50;46.80;;;24.58;30.96;101455.63;5094783;28;20102;-7
2021/10/19 06:51:07;;;;;;;4.15;2.97;;;20.50;46.90;;;24.61;30.88;101457.25;5095142;28;20480;-7
2021/10/19 06:53:33;;;;;;;2.65;2.45;;;20.50;47.00;;;24.61;31.11;101451.91;5094586;28;20092;-7
2021/10/19 06:55:59;;;;;;;4.85;2.58;;;20.50;47.00;;;24.61;30.81;101454.56;5076355;28;20044;-7
2021/10/19 06:58:27;;;;;;;4.25;2.75;;;20.50;47.00;;;24.57;30.92;101451.25;5094891;28;20408;-7
2021/10/19 07:00:55;;;;;;;3.22;2.40;;;20.50;47.00;;;24.58;30.84;101452.94;5094539;28;20047;-7
2021/10/19 07:03:24;;;;;;;2.92;2.50;;;20.50;47.00;;;24.62;31.07;101450.91;5094794;28;20060;-8
2021/10/19 07:05:51;;;;;;;3.70;2.97;;;20.50;47.00;;;24.59;31.04;101445.78;5094022;28;20055;-7
2021/10/19 07:08:18;;;;;;;4.47;2.50;;;20.50;47.00;;;24.62;31.13;101432.19;5094324;28;20051;-7
2021/10/19 07:10:44;;;;;;;4.47;2.50;;;20.50;47.00;;;24.63;31.14;101428.56;5094476;28;20079;-7
2021/10/19 07:13:09;;;;;;;2.97;2.63;;;20.50;47.00;;;24.60;31.10;101432.31;5093987;28;20496;-7
2021/10/19 07:15:36;;;;;;;3.40;2.80;;;20.50;46.90;;;24.61;31.00;101433.19;5093920;28;20059;-7
2021/10/19 07:18:07;;;;;;;4.78;2.70;;;20.50;47.00;;;24.65;31.00;101450.72;5093958;28;20052;-7
2021/10/19 07:20:34;;;;;;;3.47;2.40;;;20.60;46.80;;;24.65;31.05;101453.38;5094316;28;20082;-7
2021/10/19 07:22:59;;;;;;;2.80;2.45;;;20.60;46.80;;;24.64;31.00;101449.03;5093804;28;20044;-8
2021/10/19 07:25:28;;;;;;;4.03;2.63;;;20.60;46.90;;;24.66;31.15;101456.91;5093744;28;20063;-7
2021/10/19 07:27:57;;;;;;;3.60;3.30;;;20.60;46.80;;;24.67;30.98;101461.31;5093711;28;20114;-8
2021/10/19 07:30:23;;;;;;;3.08;2.78;;;20.60;46.80;;;24.65;30.96;101458.72;5093999;28;20055;-7
2021/10/19 07:32:50;;;;;;;4.03;2.95;;;20.60;46.80;;;24.69;30.89;101451.34;5093738;28;20496;-7
2021/10/19 07:35:17;;;;;;;4.53;3.05;;;20.60;46.90;;;24.67;31.02;101447.94;5094156;28;20486;-7
2021/10/19 07:37:44;;;;;;;3.08;2.53;;;20.60;46.90;;;24.69;30.92;101446.00;5094096;28;20127;-8
2021/10/19 07:40:11;;;;;;;3.80;2.90;;;20.60;46.80;;;24.68;30.85;101445.16;5093799;28;20036;-7
2021/10/19 07:42:37;;;;;;;3.20;2.90;;;20.60;46.80;;;24.72;30.75;101448.47;5075511;28;20117;-8
2021/10/19 07:45:11;;;;;;;3.08;2.65;;;20.60;46.80;;;24.73;30.99;101444.84;5093823;28;20138;-7
2021/10/19 07:47:44;;;;;;;3.58;3.08;;;20.60;46.70;;;24.72;30.98;101429.75;5093665;28;20481;-7
2021/10/19 07:50:13;;;;;;;3.42;2.92;;;20.70;46.60;;;24.73;31.01;101436.81;5092354;28;20499;-8
2021/10/19 07:52:39;;;;;;;3.15;2.70;;;20.80;46.40;;;24.78;30.75;101437.38;5093637;28;20451;-7
2021/10/19 07:55:07;;;;;;;4.32;2.45;;;20.80;46.40;;;24.75;30.83;101424.19;5093625;28;20047;-7
2021/10/19 07:57:49;;;;;;;3.63;2.90;;;20.80;46.40;;;24.78;31.00;101432.00;5094074;28;20490;-7
2021/10/19 08:00:21;;;;;;;2.78;2.35;;;20.90;46.40;;;24.80;30.86;101435.44;5093350;28;20070;-8
2021/10/19 08:02:46;;;;;;;3.38;2.75;;;20.90;46.40;;;24.82;30.75;101430.81;5074628;28;20048;-7
2021/10/19 08:05:14;;;;;;;3.47;2.60;;;20.90;46.30;;;24.82;30.79;101419.28;5093272;28;20108;-8
2021/10/19 08:07:42;;;;;;;3.55;3.10;;;20.90;46.30;;;24.84;30.70;101420.03;5093313;28;20484;-9
2021/10/19 08:10:09;;;;;;;3.60;2.65;;;20.90;46.30;;;24.85;30.92;101416.41;5090028;28;20048;-8
2021/10/19 08:12:35;;;;;;;3.95;3.15;;;20.90;46.40;;;24.86;30.83;101416.28;5093089;28;20404;-8
2021/10/19 08:15:01;;;;;;;3.53;2.90;;;20.90;46.40;;;24.89;30.71;101409.84;5093050;28;20050;-8
2021/10/19 08:17:28;;;;;;;4.43;2.90;;;20.90;46.40;;;24.90;30.60;101414.25;5092176;28;20044;-8
2021/10/19 08:19:59;;;;;;;2.95;2.63;;;20.90;46.30;;;24.91;30.63;101416.81;5093206;28;20052;-8
2021/10/19 08:22:29;;;;;;;3.67;2.88;;;20.90;46.30;;;24.89;30.74;101413.41;5093289;28;20059;-8
2021/10/19 08:24:56;;;;;;;4.10;3.05;;;20.90;46.40;;;24.93;30.70;101419.38;5093763;28;20437;-8
2021/10/19 08:27:25;;;;;;;3.78;3.08;;;20.90;46.40;;;24.93;30.81;101408.69;5093175;28;20047;-8
2021/10/19 08:29:52;;;;;;;3.75;2.72;;;20.90;46.40;;;24.92;30.69;101417.66;5093028;28;20496;-8
2021/10/19 08:32:18;;;;;;;2.60;2.38;;;20.90;46.40;;;24.93;30.63;101416.72;5093074;28;20550;-8
2021/10/19 08:34:45;;;;;;;3.38;2.90;;;20.90;46.40;;;24.94;30.79;101419.28;5093612;28;20116;-8
2021/10/19 08:37:11;;;;;;;4.88;3.22;;;20.90;46.40;;;24.91;30.72;101414.16;5092997;28;20129;-7
2021/10/19 08:39:37;;;;;;;4.55;2.75;;;20.90;46.40;;;24.91;30.72;101418.66;5074520;28;20118;-8
2021/10/19 08:42:03;;;;;;;3.30;3.00;;;20.90;46.40;;;24.94;30.70;101423.75;5092843;28;20047;-10
2021/10/19 08:44:29;;;;;;;3.58;3.10;;;20.90;46.40;;;24.94;30.55;101423.75;5093442;28;20084;-8
2021/10/19 08:46:55;;;;;;;3.35;3.05;;;20.90;46.40;;;24.93;30.74;101427.41;5092919;28;20480;-8
2021/10/19 08:49:20;;;;;;;3.10;2.80;;;20.90;46.40;;;24.95;30.58;101425.47;5092792;28;20044;-8
2021/10/19 08:51:47;;;;;;;2.83;2.55;;;20.80;46.50;;;24.94;30.67;101427.31;5092721;28;20536;-8
2021/10/19 08:54:13;;;;;;;4.47;3.20;;;20.80;46.50;;;24.93;30.76;101416.72;5092881;28;20044;-7
2021/10/19 08:56:40;;;;;;;4.22;3.08;;;20.80;46.40;;;24.92;30.54;101409.66;5092678;28;20109;-8
2021/10/19 08:59:06;;;;;;;3.58;3.03;;;20.80;46.50;;;24.93;30.77;101406.03;5080490;28;20055;-8
2021/10/19 09:01:34;;;;;;;4.90;3.17;;;20.80;46.40;;;24.95;30.45;101404.09;5090482;28;20478;-8
2021/10/19 09:04:00;;;;;;;3.33;2.60;;;20.90;46.50;;;24.94;30.58;101394.34;5091189;28;20044;-8
2021/10/19 09:06:34;;;;;;;3.60;2.67;;;20.90;47.00;;;24.93;30.75;101395.31;5074364;28;20048;-8
2021/10/19 09:09:10;;;;;;;3.00;2.70;;;20.90;46.40;;;24.94;30.55;101407.72;5092659;28;20048;-8
2021/10/19 09:11:44;;;;;;;2.97;2.67;;;20.90;46.30;;;24.96;30.72;101406.66;5092164;28;20082;-9
2021/10/19 09:14:12;;;;;;;2.83;2.50;;;21.00;46.30;;;24.97;30.66;101412.84;5090168;28;20415;-10
2021/10/19 09:16:42;;;;;;;3.17;2.67;;;20.90;46.30;;;24.94;30.45;101402.34;5091777;28;20048;-9
2021/10/19 09:19:15;;;;;;;2.85;2.47;;;21.00;46.30;;;24.97;30.64;101410.16;5092046;28;20062;-10
2021/10/19 09:21:47;;;;;;;4.80;2.92;;;21.00;46.30;;;24.95;30.53;101399.56;5090565;28;20193;-11
2021/10/19 09:24:27;;;;;;;5.75;2.80;;;20.90;46.30;;;25.00;30.73;101399.25;5085631;28;20044;-9
2021/10/19 09:26:54;;;;;;;2.90;2.55;;;21.00;46.30;;;25.03;30.53;101404.41;5089585;28;20044;-9
2021/10/19 09:29:20;;;;;;;2.47;2.28;;;21.10;46.10;;;25.00;30.56;101398.41;5078532;28;20037;-10
2021/10/19 09:31:53;;;;;;;3.55;2.85;;;21.10;46.00;;;24.99;30.64;101389.50;5098274;28;20040;-9
2021/10/19 09:34:19;;;;;;;4.30;2.58;;;21.10;45.90;;;25.01;30.65;101394.75;5094706;28;20055;-14
2021/10/19 09:36:45;;;;;;;5.00;3.53;;;21.10;46.00;;;24.99;30.55;101386.84;5059896;28;20044;-9
2021/10/19 09:39:11;;;;;;;2.88;2.58;;;21.00;46.10;;;25.00;30.44;101393.91;5095141;28;20044;-10
2021/10/19 09:41:45;;;;;;;4.40;3.40;;;21.00;46.10;;;25.03;30.57;101393.69;5071066;28;20507;-10
2021/10/19 09:44:16;;;;;;;3.03;2.63;;;21.00;46.10;;;25.02;30.67;101391.13;5102268;28;20051;-9
2021/10/19 09:46:42;;;;;;;3.92;3.00;;;21.00;46.10;;;25.01;30.50;101389.41;5087203;28;20055;-8
2021/10/19 09:49:09;;;;;;;2.90;2.65;;;21.00;46.10;;;25.03;30.49;101384.81;5094924;28;20043;-9
2021/10/19 09:51:38;;;;;;;3.55;3.05;;;21.10;46.10;;;25.02;30.69;101372.41;5094929;28;20048;-9
2021/10/19 09:54:10;;;;;;;2.60;2.40;;;21.10;46.10;;;25.02;30.51;101373.25;5094584;28;20101;-9
2021/10/19 09:56:38;;;;;;;3.20;2.88;;;21.10;46.10;;;25.06;30.60;101374.75;5093528;28;20051;-9
2021/10/19 09:59:05;;;;;;;4.65;3.15;;;21.10;46.10;;;25.07;30.50;101371.09;5094644;28;20039;-9
2021/10/19 10:01:35;;;;;;;4.40;2.75;;;21.10;46.00;;;25.10;30.42;101372.72;5090259;28;20117;-9
2021/10/19 10:04:02;;;;;;;6.78;3.30;;;21.10;46.00;;;25.08;30.40;101356.75;5075762;28;20059;-9
2021/10/19 10:06:30;;;;;;;3.83;3.05;;;21.10;46.00;;;25.10;30.47;101362.00;5094539;28;20048;-9
2021/10/19 10:08:57;;;;;;;3.97;2.67;;;21.10;46.10;;;25.10;30.48;101352.16;5074955;28;20400;-9
2021/10/19 10:11:24;;;;;;;3.10;2.80;;;21.10;46.00;;;25.12;30.50;101344.00;5094545;28;20082;-9
2021/10/19 10:14:03;;;;;;;3.53;2.58;;;21.10;45.90;;;25.11;30.54;101329.78;5093897;28;20384;-10
2021/10/19 10:16:41;;;;;;;3.63;2.83;;;21.20;45.90;;;25.12;30.50;101330.63;5090552;28;20059;-10